Au Sable, Michigan
Current Conditions -  °F | °C
As of 11:13 PM on Friday 24 Oct 2014 (Local Time) from KOSC Reporting Station
Haze Haze  
Wind Chill: 47°   Ceiling: Unl
Heat Index: 47°   Visibility: 5mi
Dew Point: 46°   Wind: 0mph
Humidity: 99%   Direction: NA
Pressure: 29.89"   Gusts: NA
Location:  44.4539°N, 83.4813°W
Report Text: KOSC 250313Z AUTO 00000KT 5SM BR CLR 08/07 A2989 RMK AO2 T00810080
Loading
Personal Weather Stations






























Interactive Weather Map
Tropical Storm Tracking
New forecast layout! Learn more

10-Day Weather Forecast

Advertisements
Track Severe Weather on mobile